createdAt,value
2018-01-26T00:01:58.668Z,14.30
2018-01-26T00:04:26.144Z,12.70
2018-01-26T00:06:53.665Z,13.25
2018-01-26T00:09:21.218Z,15.70
2018-01-26T00:11:49.459Z,14.02
2018-01-26T00:14:16.937Z,13.45
2018-01-26T00:16:44.402Z,12.80
2018-01-26T00:19:12.659Z,15.07
2018-01-26T00:21:40.149Z,13.00
2018-01-26T00:24:08.381Z,13.50
2018-01-26T00:26:35.854Z,14.90
2018-01-26T00:29:03.342Z,13.23
2018-01-26T00:31:30.974Z,13.48
2018-01-26T00:33:58.473Z,14.25
2018-01-26T00:36:25.954Z,14.68
2018-01-26T00:38:53.422Z,13.18
2018-01-26T00:41:20.893Z,14.48
2018-01-26T00:43:48.377Z,15.40
2018-01-26T00:46:16.641Z,14.75
2018-01-26T00:48:44.153Z,15.60
2018-01-26T00:51:11.656Z,14.93
2018-01-26T00:53:39.934Z,12.85
2018-01-26T00:56:08.178Z,14.73
2018-01-26T00:58:35.642Z,15.75
2018-01-26T01:01:03.105Z,14.87
2018-01-26T01:03:31.343Z,14.35
2018-01-26T01:06:00.257Z,14.43
2018-01-26T01:08:27.750Z,14.77
2018-01-26T01:10:55.981Z,14.18
2018-01-26T01:13:23.497Z,14.07
2018-01-26T01:15:50.996Z,14.10
2018-01-26T01:18:18.488Z,14.57
2018-01-26T01:20:46.757Z,15.32
2018-01-26T01:23:14.242Z,13.98
2018-01-26T01:25:42.505Z,14.75
2018-01-26T01:28:10.743Z,14.63
2018-01-26T01:30:38.241Z,13.98
2018-01-26T01:33:06.510Z,13.45
2018-01-26T01:35:34.758Z,13.85
2018-01-26T01:38:02.259Z,16.23
2018-01-26T01:40:29.731Z,14.05
2018-01-26T01:42:57.219Z,13.23
2018-01-26T01:45:24.712Z,15.68
2018-01-26T01:47:52.182Z,14.63
2018-01-26T01:50:19.664Z,15.80
2018-01-26T01:52:47.135Z,13.95
2018-01-26T01:55:27.761Z,13.15
2018-01-26T01:57:55.259Z,15.27
2018-01-26T02:00:22.789Z,15.18
2018-01-26T02:02:50.285Z,13.00
2018-01-26T02:05:17.805Z,13.70
2018-01-26T02:07:45.275Z,14.82
2018-01-26T02:10:12.759Z,13.27
2018-01-26T02:12:40.473Z,13.52
2018-01-26T02:15:07.979Z,13.68
2018-01-26T02:17:35.440Z,13.18
2018-01-26T02:20:02.925Z,12.35
2018-01-26T02:22:30.390Z,13.85
2018-01-26T02:25:15.400Z,12.65
2018-01-26T02:27:42.893Z,11.88
2018-01-26T02:30:10.415Z,12.52
2018-01-26T02:32:37.918Z,12.50
2018-01-26T02:35:05.408Z,11.18
2018-01-26T02:37:32.895Z,11.52
2018-01-26T02:40:00.393Z,13.52
2018-01-26T02:42:27.849Z,11.70
2018-01-26T02:44:55.341Z,13.23
2018-01-26T02:47:22.806Z,11.70
2018-01-26T02:49:50.273Z,12.32
2018-01-26T02:52:17.750Z,12.65
2018-01-26T02:54:45.220Z,11.93
2018-01-26T02:57:12.698Z,12.18
2018-01-26T02:59:40.199Z,11.70
2018-01-26T03:02:07.889Z,11.93
2018-01-26T03:04:35.369Z,12.93
2018-01-26T03:07:02.843Z,11.45
2018-01-26T03:09:31.125Z,12.82
2018-01-26T03:11:59.374Z,11.52
2018-01-26T03:14:26.931Z,13.40
2018-01-26T03:16:54.474Z,12.20
2018-01-26T03:19:22.031Z,13.70
2018-01-26T03:21:49.606Z,14.40
2018-01-26T03:24:17.095Z,12.25
2018-01-26T03:26:45.362Z,14.55
2018-01-26T03:29:13.618Z,13.40
2018-01-26T03:31:41.146Z,14.45
2018-01-26T03:34:08.659Z,12.50
2018-01-26T03:36:36.146Z,12.07
2018-01-26T03:39:03.666Z,11.63
2018-01-26T03:41:31.170Z,14.13
2018-01-26T03:43:58.651Z,14.00
2018-01-26T03:46:26.148Z,12.20
2018-01-26T03:48:54.422Z,12.32
2018-01-26T03:51:22.701Z,11.65
2018-01-26T03:53:51.021Z,10.75
2018-01-26T03:56:18.476Z,12.98
2018-01-26T03:58:45.981Z,13.05
2018-01-26T04:01:14.234Z,12.10
2018-01-26T04:03:41.713Z,11.45
2018-01-26T04:06:09.168Z,12.27
2018-01-26T04:08:37.425Z,12.70
2018-01-26T04:11:04.904Z,11.85
2018-01-26T04:13:32.379Z,12.52
2018-01-26T04:15:59.842Z,13.60
2018-01-26T04:18:27.327Z,10.40
2018-01-26T04:20:54.817Z,10.40
2018-01-26T04:23:22.301Z,12.68
2018-01-26T04:25:49.778Z,11.60
2018-01-26T04:28:17.262Z,12.00
2018-01-26T04:30:44.741Z,10.88
2018-01-26T04:33:12.215Z,12.45
2018-01-26T04:35:39.685Z,11.35
2018-01-26T04:38:07.166Z,11.55
2018-01-26T04:40:34.702Z,11.80
2018-01-26T04:43:02.935Z,9.07
2018-01-26T04:45:30.397Z,11.32
2018-01-26T04:47:57.871Z,10.73
2018-01-26T04:50:26.424Z,12.82
2018-01-26T04:52:53.899Z,12.27
2018-01-26T04:55:21.399Z,10.65
2018-01-26T04:57:48.947Z,11.63
2018-01-26T05:00:16.495Z,11.10
2018-01-26T05:02:44.734Z,10.85
2018-01-26T05:05:12.214Z,11.38
2018-01-26T05:07:39.751Z,12.75
2018-01-26T05:10:07.275Z,11.75
2018-01-26T05:12:34.789Z,13.10
2018-01-26T05:15:02.472Z,11.68
2018-01-26T05:17:30.760Z,11.85
2018-01-26T05:19:58.298Z,12.80
2018-01-26T05:22:26.578Z,11.48
2018-01-26T05:24:56.066Z,12.50
2018-01-26T05:27:23.559Z,13.18
2018-01-26T05:29:51.035Z,12.70
2018-01-26T05:32:18.510Z,12.13
2018-01-26T05:34:45.970Z,13.52
2018-01-26T05:37:13.453Z,12.55
2018-01-26T05:39:40.970Z,13.98
2018-01-26T05:42:08.514Z,13.50
2018-01-26T05:44:36.031Z,14.38
2018-01-26T05:47:03.553Z,14.40
2018-01-26T05:49:31.069Z,13.82
2018-01-26T05:51:58.561Z,12.82
2018-01-26T05:54:26.424Z,13.40
2018-01-26T05:56:53.890Z,15.77
2018-01-26T05:59:21.492Z,13.38
2018-01-26T06:01:48.985Z,15.50
2018-01-26T06:04:16.468Z,13.50
2018-01-26T06:06:44.326Z,14.65
2018-01-26T06:09:11.785Z,13.00
2018-01-26T06:11:39.375Z,14.85
2018-01-26T06:14:07.120Z,15.65
2018-01-26T06:16:35.391Z,16.23
2018-01-26T06:19:03.093Z,16.52
2018-01-26T06:21:34.616Z,16.35
2018-01-26T06:24:02.497Z,14.35
2018-01-26T06:26:32.608Z,14.05
2018-01-26T06:29:02.219Z,13.52
2018-01-26T06:31:29.959Z,17.25
2018-01-26T06:33:58.011Z,16.42
2018-01-26T06:36:25.576Z,15.13
2018-01-26T06:38:53.103Z,17.60
2018-01-26T06:41:20.711Z,16.23
2018-01-26T06:43:48.261Z,17.25
2018-01-26T06:46:15.894Z,17.15
2018-01-26T06:48:44.284Z,16.12
2018-01-26T06:51:11.883Z,15.98
2018-01-26T06:53:39.585Z,15.73
2018-01-26T06:56:07.785Z,17.90
2018-01-26T06:58:35.983Z,15.65
2018-01-26T07:01:03.616Z,16.65
2018-01-26T07:03:32.404Z,17.33
2018-01-26T07:05:59.893Z,15.95
2018-01-26T07:11:20.880Z,16.37
2018-01-26T07:13:48.323Z,17.83
2018-01-26T07:16:16.761Z,17.52
2018-01-26T07:18:44.415Z,18.50
2018-01-26T07:21:11.911Z,19.90
2018-01-26T07:23:39.352Z,16.95
2018-01-26T07:26:07.105Z,20.12
2018-01-26T07:28:34.561Z,21.70
2018-01-26T07:31:02.006Z,20.75
2018-01-26T07:33:29.525Z,21.52
2018-01-26T07:35:57.022Z,23.33
2018-01-26T07:38:24.574Z,24.98
2018-01-26T07:40:52.382Z,24.45
2018-01-26T07:43:21.313Z,25.12
2018-01-26T07:45:48.788Z,23.35
2018-01-26T07:48:16.258Z,23.62
2018-01-26T07:50:43.757Z,24.90
2018-01-26T07:53:11.292Z,23.27
2018-01-26T07:55:39.087Z,22.45
2018-01-26T07:58:06.606Z,23.58
2018-01-26T08:00:34.099Z,24.80
2018-01-26T08:03:02.343Z,24.37
2018-01-26T08:05:29.874Z,25.33
2018-01-26T08:07:57.376Z,26.17
2018-01-26T08:10:24.930Z,27.13
2018-01-26T08:12:52.420Z,24.30
2018-01-26T08:15:19.976Z,25.83
2018-01-26T08:17:47.494Z,25.80
2018-01-26T08:20:15.367Z,27.83
2018-01-26T08:22:43.031Z,25.62
2018-01-26T08:25:10.566Z,26.73
2018-01-26T08:27:38.029Z,25.42
2018-01-26T08:30:05.514Z,25.50
2018-01-26T08:32:32.980Z,29.50
2018-01-26T08:35:00.553Z,29.23
2018-01-26T08:37:27.975Z,28.25
2018-01-26T08:39:55.510Z,27.70
2018-01-26T08:42:22.982Z,30.58
2018-01-26T08:44:50.457Z,28.60
2018-01-26T08:47:17.925Z,27.17
2018-01-26T08:49:45.385Z,30.10
2018-01-26T08:52:12.861Z,29.90
2018-01-26T08:54:40.338Z,30.02
2018-01-26T08:57:07.813Z,29.83
2018-01-26T08:59:35.278Z,29.25
2018-01-26T09:02:02.767Z,29.65
2018-01-26T09:04:30.244Z,29.70
2018-01-26T09:06:57.750Z,30.20
2018-01-26T09:09:25.204Z,29.52
2018-01-26T09:11:52.663Z,31.83
2018-01-26T09:14:20.153Z,32.40
2018-01-26T09:16:48.393Z,31.98
2018-01-26T09:19:16.030Z,34.95
2018-01-26T09:21:43.501Z,31.37
2018-01-26T09:24:10.973Z,32.35
2018-01-26T09:26:38.442Z,32.75
2018-01-26T09:29:07.208Z,32.42
2018-01-26T09:31:34.694Z,33.80
2018-01-26T09:34:02.952Z,32.80
2018-01-26T09:36:30.571Z,34.58
2018-01-26T09:38:58.050Z,32.53
2018-01-26T09:41:25.799Z,33.78
2018-01-26T09:43:53.261Z,34.95
2018-01-26T09:46:20.740Z,34.45
2018-01-26T09:48:48.222Z,31.98
2018-01-26T09:51:15.686Z,33.70
2018-01-26T09:53:43.176Z,35.50
2018-01-26T09:56:10.677Z,33.83
2018-01-26T09:58:38.208Z,35.13
2018-01-26T10:01:05.698Z,34.75
2018-01-26T10:03:33.154Z,36.10
2018-01-26T10:06:00.619Z,33.22
2018-01-26T10:08:28.073Z,33.15
2018-01-26T10:10:55.538Z,39.78
2018-01-26T10:13:23.045Z,36.70
2018-01-26T10:15:50.527Z,33.28
2018-01-26T10:18:18.085Z,33.50
2018-01-26T10:20:45.566Z,33.75
2018-01-26T10:23:13.166Z,32.60
2018-01-26T10:25:40.645Z,36.25
2018-01-26T10:28:08.146Z,38.22
2018-01-26T10:30:35.633Z,36.80
2018-01-26T10:33:03.113Z,35.53
2018-01-26T10:35:30.599Z,36.90
2018-01-26T10:37:58.106Z,34.22
2018-01-26T10:40:25.593Z,37.58
2018-01-26T10:42:53.061Z,38.30
2018-01-26T10:45:20.519Z,35.25
2018-01-26T10:47:47.999Z,36.47
2018-01-26T10:50:15.442Z,36.75
2018-01-26T10:52:42.921Z,35.28
2018-01-26T10:55:11.153Z,35.75
2018-01-26T10:57:38.642Z,34.65
2018-01-26T11:00:06.102Z,35.03
2018-01-26T11:02:33.577Z,34.75
2018-01-26T11:05:01.045Z,33.95
2018-01-26T11:07:28.505Z,36.65
2018-01-26T11:09:55.980Z,34.63
2018-01-26T11:12:23.451Z,33.90
2018-01-26T11:14:50.979Z,33.92
2018-01-26T11:17:18.425Z,36.60
2018-01-26T11:19:45.897Z,33.92
2018-01-26T11:22:13.349Z,35.40
2018-01-26T11:24:40.797Z,31.60
2018-01-26T11:27:08.249Z,34.33
2018-01-26T11:29:35.703Z,32.22
2018-01-26T11:32:03.153Z,32.20
2018-01-26T11:34:31.381Z,37.03
2018-01-26T11:36:58.880Z,31.92
2018-01-26T11:39:27.118Z,33.47
2018-01-26T11:41:54.566Z,34.33
2018-01-26T11:44:22.096Z,35.97
2018-01-26T11:46:49.629Z,33.83
2018-01-26T11:49:17.377Z,34.55
2018-01-26T11:51:45.106Z,35.50
2018-01-26T11:54:12.605Z,34.47
2018-01-26T11:56:40.950Z,32.75
2018-01-26T11:59:08.454Z,32.50
2018-01-26T12:01:36.017Z,31.67
2018-01-26T12:04:04.584Z,33.00
2018-01-26T12:06:32.985Z,32.42
2018-01-26T12:09:00.576Z,27.52
2018-01-26T12:11:28.359Z,28.73
2018-01-26T12:13:56.613Z,26.40
2018-01-26T12:16:24.495Z,28.02
2018-01-26T12:18:52.097Z,29.00
2018-01-26T12:21:20.478Z,31.92
2018-01-26T12:23:48.007Z,28.85
2018-01-26T12:26:15.510Z,33.17
2018-01-26T12:28:43.087Z,27.77
2018-01-26T12:31:10.702Z,30.75
2018-01-26T12:33:38.222Z,30.60
2018-01-26T12:36:05.946Z,29.12
2018-01-26T12:38:33.473Z,29.40
2018-01-26T12:41:01.032Z,29.33
2018-01-26T12:43:28.583Z,31.85
2018-01-26T12:45:56.078Z,30.45
2018-01-26T12:48:23.760Z,31.42
2018-01-26T12:50:51.292Z,31.90
2018-01-26T12:53:18.862Z,31.42
2018-01-26T12:55:46.543Z,30.73
2018-01-26T12:58:14.179Z,30.35
2018-01-26T13:00:41.708Z,32.17
2018-01-26T13:03:09.203Z,31.58
2018-01-26T13:05:39.113Z,30.62
2018-01-26T13:08:06.739Z,29.12
2018-01-26T13:10:34.271Z,29.33
2018-01-26T13:13:02.031Z,29.87
2018-01-26T13:15:29.663Z,30.40
2018-01-26T13:18:01.858Z,30.85
2018-01-26T13:20:29.360Z,28.83
2018-01-26T13:22:56.906Z,30.37
2018-01-26T13:25:24.418Z,30.27
2018-01-26T13:27:52.112Z,28.50
2018-01-26T13:30:21.401Z,31.45
2018-01-26T13:32:48.962Z,31.25
2018-01-26T13:35:16.464Z,30.23
2018-01-26T13:37:43.958Z,32.58
2018-01-26T13:40:11.457Z,30.55
2018-01-26T13:42:38.916Z,31.92
2018-01-26T13:45:06.394Z,32.65
2018-01-26T13:47:33.860Z,33.00
2018-01-26T13:50:01.366Z,34.65
2018-01-26T13:52:28.794Z,35.25
2018-01-26T13:54:56.338Z,36.40
2018-01-26T13:57:23.842Z,41.15
2018-01-26T13:59:51.508Z,39.00
2018-01-26T14:02:18.977Z,37.63
2018-01-26T14:04:46.455Z,35.40
2018-01-26T14:07:14.690Z,37.83
2018-01-26T14:09:42.189Z,37.78
2018-01-26T14:12:10.446Z,38.03
2018-01-26T14:14:37.896Z,39.58
2018-01-26T14:17:05.369Z,37.72
2018-01-26T14:19:32.824Z,37.58
2018-01-26T14:22:00.332Z,35.03
2018-01-26T14:24:27.802Z,40.28
2018-01-26T14:26:55.279Z,35.97
2018-01-26T14:29:22.993Z,38.90
2018-01-26T14:31:50.479Z,36.10
2018-01-26T14:34:17.958Z,35.22
2018-01-26T14:36:45.425Z,37.97
2018-01-26T14:39:12.900Z,35.15
2018-01-26T14:41:40.357Z,37.28
2018-01-26T14:44:10.165Z,39.95
2018-01-26T14:46:38.409Z,39.42
2018-01-26T14:49:05.912Z,39.25
2018-01-26T14:51:33.361Z,38.15
2018-01-26T14:54:01.593Z,38.63
2018-01-26T14:56:29.058Z,38.42
2018-01-26T14:58:56.538Z,38.72
2018-01-26T15:01:24.033Z,37.30
2018-01-26T15:03:51.489Z,36.58
2018-01-26T15:06:18.978Z,36.90
2018-01-26T15:08:46.436Z,36.95
2018-01-26T15:11:13.924Z,39.97
2018-01-26T15:13:41.381Z,35.55
2018-01-26T15:16:08.835Z,38.38
2018-01-26T15:18:36.306Z,38.20
2018-01-26T15:21:03.785Z,35.60
2018-01-26T15:23:31.250Z,36.53
2018-01-26T15:25:58.701Z,35.47
2018-01-26T15:28:26.181Z,37.72
2018-01-26T15:30:53.661Z,35.35
2018-01-26T15:33:21.133Z,34.88
2018-01-26T15:35:48.606Z,38.55
2018-01-26T15:38:16.056Z,35.67
2018-01-26T15:40:43.505Z,36.22
2018-01-26T15:43:10.948Z,36.17
2018-01-26T15:45:38.421Z,35.78
2018-01-26T15:48:05.881Z,35.92
2018-01-26T15:50:33.334Z,38.95
2018-01-26T15:53:00.781Z,37.05
2018-01-26T15:55:28.248Z,36.90
2018-01-26T15:57:56.488Z,36.17
2018-01-26T16:00:23.956Z,34.63
2018-01-26T16:02:51.421Z,36.22
2018-01-26T16:05:19.196Z,35.35
2018-01-26T16:07:46.963Z,35.58
2018-01-26T16:10:14.524Z,37.75
2018-01-26T16:12:42.454Z,37.75
2018-01-26T16:15:10.921Z,35.40
2018-01-26T16:17:38.383Z,39.13
2018-01-26T16:20:05.993Z,38.67
2018-01-26T16:22:33.489Z,38.25
2018-01-26T16:25:00.967Z,37.92
2018-01-26T16:27:28.421Z,38.15
2018-01-26T16:29:55.890Z,36.97
2018-01-26T16:32:23.401Z,31.30
2018-01-26T16:34:50.848Z,29.92
2018-01-26T16:37:19.112Z,29.40
2018-01-26T16:39:47.353Z,28.30
2018-01-26T16:42:15.133Z,32.63
2018-01-26T16:44:42.876Z,31.42
2018-01-26T16:47:10.782Z,31.73
2018-01-26T16:49:38.877Z,29.67
2018-01-26T16:52:06.640Z,30.08
2018-01-26T16:54:34.258Z,28.70
2018-01-26T16:57:01.813Z,28.90
2018-01-26T16:59:29.352Z,30.65
2018-01-26T17:01:56.967Z,29.35
2018-01-26T17:04:24.958Z,28.67
2018-01-26T17:06:52.700Z,26.98
2018-01-26T17:09:35.778Z,28.12
2018-01-26T17:12:06.358Z,29.67
2018-01-26T17:14:36.070Z,29.45
2018-01-26T17:17:04.995Z,28.17
2018-01-26T17:19:41.835Z,27.55
2018-01-26T17:22:09.598Z,27.50
2018-01-26T17:24:38.298Z,28.33
2018-01-26T17:27:07.951Z,25.95
2018-01-26T17:29:37.702Z,27.17
2018-01-26T17:32:06.141Z,26.73
2018-01-26T17:34:33.840Z,25.92
2018-01-26T17:37:01.364Z,27.95
2018-01-26T17:39:28.891Z,27.15
2018-01-26T17:41:56.373Z,37.00
2018-01-26T17:44:23.838Z,28.02
2018-01-26T17:46:51.309Z,27.83
2018-01-26T17:49:18.805Z,33.08
2018-01-26T17:51:46.280Z,25.20
2018-01-26T17:54:13.757Z,27.65
2018-01-26T17:56:41.245Z,22.87
2018-01-26T17:59:08.730Z,22.90
2018-01-26T18:01:36.248Z,23.87
2018-01-26T18:04:03.733Z,27.70
2018-01-26T18:06:32.033Z,24.60
2018-01-26T18:08:59.499Z,22.40
2018-01-26T18:11:26.970Z,25.95
2018-01-26T18:13:56.026Z,21.60
2018-01-26T18:16:23.484Z,22.90
2018-01-26T18:18:50.988Z,24.92
2018-01-26T18:21:18.455Z,23.45
2018-01-26T18:23:46.034Z,21.25
2018-01-26T18:26:13.532Z,24.45
2018-01-26T18:28:41.014Z,22.92
2018-01-26T18:31:08.524Z,22.05
2018-01-26T18:33:36.781Z,23.10
2018-01-26T18:36:04.226Z,23.12
2018-01-26T18:38:32.669Z,22.85
2018-01-26T18:41:00.139Z,24.40
2018-01-26T18:43:28.625Z,27.33
2018-01-26T18:45:56.133Z,25.60
2018-01-26T18:48:23.602Z,25.73
2018-01-26T18:50:51.093Z,23.62
2018-01-26T18:53:18.648Z,25.67
2018-01-26T18:55:46.127Z,31.25
2018-01-26T18:58:13.585Z,27.45
2018-01-26T19:00:41.039Z,28.60
2018-01-26T19:03:08.565Z,28.40
2018-01-26T19:05:36.046Z,27.77
2018-01-26T19:08:03.543Z,29.85
2018-01-26T19:10:31.005Z,28.50
2018-01-26T19:12:59.285Z,29.92
2018-01-26T19:15:27.825Z,28.23
2018-01-26T19:17:55.288Z,30.10
2018-01-26T19:20:22.751Z,28.75
2018-01-26T19:22:50.242Z,26.40
2018-01-26T19:25:17.700Z,28.60
2018-01-26T19:27:45.286Z,28.92
2018-01-26T19:30:12.731Z,27.58
2018-01-26T19:32:40.181Z,31.40
2018-01-26T19:35:07.664Z,30.60
2018-01-26T19:37:35.177Z,27.75
2018-01-26T19:40:02.625Z,28.90
2018-01-26T19:42:30.136Z,29.77
2018-01-26T19:44:57.617Z,31.12
2018-01-26T19:47:25.081Z,34.15
2018-01-26T19:49:52.580Z,39.22
2018-01-26T19:52:20.050Z,39.13
2018-01-26T19:54:47.594Z,38.30
2018-01-26T19:57:15.061Z,38.03
2018-01-26T19:59:44.975Z,38.92
2018-01-26T20:02:12.428Z,34.42
2018-01-26T20:04:45.456Z,34.92
2018-01-26T20:07:28.268Z,35.42
2018-01-26T20:09:55.761Z,35.17
2018-01-26T20:12:23.222Z,33.50
2018-01-26T20:14:51.454Z,32.35
2018-01-26T20:17:18.987Z,32.50
2018-01-26T20:19:46.499Z,30.45
2018-01-26T20:22:13.990Z,30.37
2018-01-26T20:24:41.471Z,29.55
2018-01-26T20:27:08.981Z,27.17
2018-01-26T20:29:36.521Z,27.50
2018-01-26T20:32:04.073Z,26.80
2018-01-26T20:34:32.934Z,25.40
2018-01-26T20:37:00.491Z,26.05
2018-01-26T20:39:28.261Z,24.60
2018-01-26T20:41:56.446Z,24.35
2018-01-26T20:44:25.223Z,23.73
2018-01-26T20:46:52.902Z,26.25
2018-01-26T20:49:20.379Z,21.92
2018-01-26T20:51:47.947Z,24.23
2018-01-26T20:54:15.416Z,24.00
2018-01-26T20:56:42.971Z,22.87
2018-01-26T20:59:11.275Z,23.40
2018-01-26T21:01:38.733Z,23.23
2018-01-26T21:04:06.389Z,22.67
2018-01-26T21:06:33.864Z,24.35
2018-01-26T21:09:01.357Z,23.83
2018-01-26T21:11:28.952Z,20.62
2018-01-26T21:13:57.243Z,21.52
2018-01-26T21:16:24.703Z,21.62
2018-01-26T21:18:52.210Z,21.27
2018-01-26T21:21:19.691Z,20.75
2018-01-26T21:23:47.222Z,20.80
2018-01-26T21:26:14.720Z,21.95
2018-01-26T21:28:42.984Z,23.17
2018-01-26T21:31:11.480Z,20.23
2018-01-26T21:33:38.962Z,17.83
2018-01-26T21:36:06.570Z,18.67
2018-01-26T21:38:34.069Z,18.42
2018-01-26T21:41:01.557Z,18.00
2018-01-26T21:43:29.029Z,16.40
2018-01-26T21:45:56.518Z,16.40
2018-01-26T21:48:24.932Z,19.00
2018-01-26T21:50:52.558Z,20.00
2018-01-26T21:53:20.065Z,19.85
2018-01-26T21:55:47.560Z,17.75
2018-01-26T21:58:15.098Z,17.58
2018-01-26T22:00:42.579Z,18.70
2018-01-26T22:03:10.485Z,18.37
2018-01-26T22:05:38.005Z,18.02
2018-01-26T22:08:06.261Z,20.80
2018-01-26T22:10:33.740Z,20.75
2018-01-26T22:13:01.990Z,18.87
2018-01-26T22:15:29.490Z,16.55
2018-01-26T22:17:56.982Z,18.27
2018-01-26T22:20:24.448Z,20.20
2018-01-26T22:22:51.972Z,19.67
2018-01-26T22:25:19.709Z,19.48
2018-01-26T22:27:47.937Z,20.20
2018-01-26T22:30:16.405Z,20.15
2018-01-26T22:32:43.878Z,19.45
2018-01-26T22:35:11.341Z,19.75
2018-01-26T22:37:38.838Z,22.30
2018-01-26T22:40:06.317Z,23.17
2018-01-26T22:42:33.803Z,19.98
2018-01-26T22:45:01.293Z,22.75
2018-01-26T22:47:28.765Z,20.73
2018-01-26T22:49:56.226Z,18.85
2018-01-26T22:52:24.477Z,20.52
2018-01-26T22:54:51.950Z,18.58
2018-01-26T22:57:19.409Z,18.62
2018-01-26T22:59:46.865Z,21.33
2018-01-26T23:02:15.113Z,19.60
2018-01-26T23:04:42.557Z,22.35
2018-01-26T23:07:10.086Z,21.25
2018-01-26T23:09:37.567Z,21.33
2018-01-26T23:12:05.105Z,19.20
2018-01-26T23:14:32.638Z,19.25
2018-01-26T23:17:00.131Z,19.05
2018-01-26T23:19:27.684Z,20.48
2018-01-26T23:21:55.179Z,20.02
2018-01-26T23:24:22.626Z,20.00
2018-01-26T23:26:50.089Z,20.23
2018-01-26T23:29:17.577Z,18.35
2018-01-26T23:31:45.524Z,21.35
2018-01-26T23:34:13.761Z,19.70
2018-01-26T23:36:41.248Z,21.98
2018-01-26T23:39:08.799Z,18.85
2018-01-26T23:41:36.283Z,18.87
2018-01-26T23:44:03.860Z,19.52
2018-01-26T23:46:31.377Z,18.77
2018-01-26T23:48:58.871Z,18.42
2018-01-26T23:51:26.342Z,17.50
2018-01-26T23:53:53.806Z,18.50
2018-01-26T23:56:21.337Z,14.38
2018-01-26T23:58:48.892Z,15.38
